NORTHEAST SUFFOLK  -  Frost Advisory Frost Advisory        NORTHWEST SUFFOLK  -  Frost Advisory Frost Advisory        SOUTHEAST SUFFOLK  -  Frost Advisory Frost Advisory        SOUTHWEST SUFFOLK  -  Frost Advisory Frost Advisory      

Active alerts

Northwest Suffolk
  Details for Northwest Suffolk Frost Advisory
Southwest Suffolk
  Details for Southwest Suffolk Frost Advisory
Northeast Suffolk
  Details for Northeast Suffolk Frost Advisory
Southeast Suffolk
  Details for Southeast Suffolk Frost Advisory


WXM80 ListenWXM80 Stop

You find our weather info also at:

UK Metoffice

WeatherCloud

Weather Underground

Northeastern Weather Network

AWEKAS

Citizen Weather Observer Program (CWOP)

HAMweather, WeatherForYou, PWS Weather


Weather Underground History page Text

Daily Summary for September 25, 2016 Units:  English    Metric   Both
« Previous Day
Next Day »
Daily Weekly Monthly Yearly Custom
  High: Low: Average:
Temperature: 71.8 °F 56.1 °F 62.8 °F
Dew Point: 47.8 °F 38.9 °F 43.9 °F
Humidity: 69 % 34 % 52 %
Wind Speed: 9.2 mph 0.0 mph 3.9 mph
Wind Gust: 15.0 mph - -
Wind:- - SE
Pressure: 30.18 in 30.08 in -
Precipitation: 0.00 in    
Historical Graphs
 
 
Tabular Data for September 25, 2016
Time Temperature Dew Point Pressure Wind Wind Speed Wind Gust Humidity Rainfall Rate (Hourly)
00:09 62.1 °F 46.2 °F 30.10 in NNE 6.7 mph 10.4 mph 56 % 0.00 in
00:14 62.0 °F 46.1 °F 30.11 in NNE 5.5 mph 11.5 mph 56 % 0.00 in
00:25 61.7 °F 46.3 °F 30.10 in NNE 6.4 mph 11.5 mph 57 % 0.00 in
00:30 61.6 °F 45.7 °F 30.10 in NE 8.2 mph 11.5 mph 56 % 0.00 in
00:35 61.4 °F 46.0 °F 30.10 in North 5.9 mph 11.5 mph 57 % 0.00 in
00:40 61.3 °F 46.8 °F 30.10 in North 5.9 mph 15.0 mph 59 % 0.00 in
00:45 61.1 °F 47.1 °F 30.10 in NNE 3.4 mph 9.2 mph 60 % 0.00 in
00:50 60.9 °F 46.5 °F 30.10 in NNE 6.1 mph 10.0 mph 59 % 0.00 in
00:55 60.8 °F 47.3 °F 30.10 in NNE 8.0 mph 13.8 mph 61 % 0.00 in
01:00 60.6 °F 46.6 °F 30.10 in North 7.1 mph 10.4 mph 60 % 0.00 in
01:05 60.5 °F 47.0 °F 30.11 in NNW 6.4 mph 8.0 mph 61 % 0.00 in
01:11 60.5 °F 47.4 °F 30.11 in North 6.0 mph 12.0 mph 62 % 0.00 in
01:16 60.3 °F 47.2 °F 30.11 in North 6.0 mph 14.0 mph 62 % 0.00 in
01:20 60.2 °F 46.7 °F 30.11 in NNE 6.4 mph 7.0 mph 61 % 0.00 in
01:26 60.1 °F 47.5 °F 30.11 in NNE 5.0 mph 12.0 mph 63 % 0.00 in
01:31 60.0 °F 47.8 °F 30.12 in NNE 6.0 mph 12.0 mph 64 % 0.00 in
01:36 59.9 °F 47.7 °F 30.12 in NNE 6.0 mph 12.0 mph 64 % 0.00 in
01:41 59.8 °F 47.6 °F 30.12 in NNE 5.0 mph 10.0 mph 64 % 0.00 in
01:46 59.8 °F 47.6 °F 30.12 in NNE 5.0 mph 12.0 mph 64 % 0.00 in
01:51 59.7 °F 47.5 °F 30.12 in NNE 6.0 mph 12.0 mph 64 % 0.00 in
01:56 59.6 °F 47.8 °F 30.12 in North 5.0 mph 10.0 mph 65 % 0.00 in
02:01 59.5 °F 47.3 °F 30.12 in NNE 5.7 mph 8.1 mph 64 % 0.00 in
02:06 59.4 °F 46.8 °F 30.12 in NE 6.3 mph 11.0 mph 63 % 0.00 in
02:11 59.4 °F 47.2 °F 30.12 in NNW 5.5 mph 11.5 mph 64 % 0.00 in
02:16 59.3 °F 46.7 °F 30.12 in North 5.1 mph 10.4 mph 63 % 0.00 in
02:21 59.3 °F 47.1 °F 30.12 in North 3.4 mph 8.1 mph 64 % 0.00 in
02:26 59.2 °F 47.0 °F 30.12 in NNE 4.3 mph 9.2 mph 64 % 0.00 in
02:31 59.1 °F 46.1 °F 30.12 in NNE 4.0 mph 6.9 mph 62 % 0.00 in
02:36 59.0 °F 46.4 °F 30.12 in NNE 6.4 mph 7.0 mph 63 % 0.00 in
02:41 59.0 °F 46.0 °F 30.12 in NNE 4.3 mph 7.0 mph 62 % 0.00 in
02:46 59.0 °F 45.6 °F 30.12 in NNE 5.3 mph 10.4 mph 61 % 0.00 in
02:52 59.0 °F 45.6 °F 30.12 in North 8.5 mph 10.4 mph 61 % 0.00 in
02:57 59.1 °F 45.7 °F 30.12 in NNE 4.8 mph 8.1 mph 61 % 0.00 in
03:02 59.1 °F 45.7 °F 30.12 in North 5.2 mph 8.1 mph 61 % 0.00 in
03:07 59.1 °F 46.1 °F 30.12 in North 6.8 mph 11.0 mph 62 % 0.00 in
03:17 59.1 °F 45.7 °F 30.13 in NNE 5.5 mph 9.2 mph 61 % 0.00 in
03:22 59.1 °F 45.7 °F 30.12 in North 5.7 mph 11.5 mph 61 % 0.00 in
03:27 59.1 °F 45.7 °F 30.12 in North 4.2 mph 6.0 mph 61 % 0.00 in
03:43 58.8 °F 45.8 °F 30.12 in North 5.0 mph 8.1 mph 62 % 0.00 in
03:53 58.7 °F 45.7 °F 30.12 in NNE 4.4 mph 8.1 mph 62 % 0.00 in
03:58 58.7 °F 45.7 °F 30.12 in NNW 7.0 mph 10.4 mph 62 % 0.00 in
04:08 58.5 °F 46.4 °F 30.12 in North 3.7 mph 6.0 mph 64 % 0.00 in
04:13 58.4 °F 45.8 °F 30.13 in North 3.6 mph 6.9 mph 63 % 0.00 in
04:18 58.3 °F 46.6 °F 30.13 in North 3.3 mph 5.8 mph 65 % 0.00 in
04:23 58.2 °F 46.1 °F 30.13 in NNE 5.6 mph 8.0 mph 64 % 0.00 in
04:28 58.0 °F 45.0 °F 30.13 in NNW 5.1 mph 6.9 mph 62 % 0.00 in
04:39 57.9 °F 46.2 °F 30.13 in North 4.3 mph 9.2 mph 65 % 0.00 in
04:44 57.8 °F 46.1 °F 30.13 in NNE 6.2 mph 9.2 mph 65 % 0.00 in
04:49 57.6 °F 45.9 °F 30.13 in North 7.1 mph 11.5 mph 65 % 0.00 in
04:54 57.4 °F 45.7 °F 30.13 in North 5.3 mph 10.4 mph 65 % 0.00 in
04:59 57.3 °F 45.6 °F 30.14 in North 5.7 mph 9.2 mph 65 % 0.00 in
05:04 57.2 °F 45.1 °F 30.14 in NE 4.5 mph 7.0 mph 64 % 0.00 in
05:09 57.1 °F 45.4 °F 30.14 in NNW 4.3 mph 8.1 mph 65 % 0.00 in
05:14 57.0 °F 44.9 °F 30.14 in North 5.7 mph 8.1 mph 64 % 0.00 in
05:19 56.9 °F 44.8 °F 30.14 in NNW 3.4 mph 11.5 mph 64 % 0.00 in
05:25 56.9 °F 45.3 °F 30.14 in North 4.7 mph 11.5 mph 65 % 0.00 in
05:30 56.8 °F 44.7 °F 30.14 in North 5.2 mph 8.1 mph 64 % 0.00 in
05:35 56.8 °F 45.2 °F 30.14 in North 3.9 mph 8.1 mph 65 % 0.00 in
05:40 56.7 °F 44.7 °F 30.14 in NNW 5.6 mph 9.2 mph 64 % 0.00 in
05:45 56.6 °F 45.0 °F 30.14 in North 6.2 mph 9.2 mph 65 % 0.00 in
05:50 56.6 °F 45.0 °F 30.15 in North 5.0 mph 8.1 mph 65 % 0.00 in
06:00 56.5 °F 45.3 °F 30.15 in NNE 5.1 mph 9.0 mph 66 % 0.00 in
06:05 56.5 °F 45.7 °F 30.15 in NNE 6.3 mph 6.9 mph 67 % 0.00 in
06:10 56.4 °F 45.6 °F 30.15 in North 4.5 mph 7.0 mph 67 % 0.00 in
06:16 56.4 °F 45.2 °F 30.15 in NNW 6.0 mph 10.0 mph 66 % 0.00 in
06:21 56.3 °F 45.1 °F 30.15 in North 5.0 mph 9.0 mph 66 % 0.00 in
06:26 56.2 °F 45.0 °F 30.15 in North 5.0 mph 12.0 mph 66 % 0.00 in
06:31 56.2 °F 45.0 °F 30.15 in NNE 8.0 mph 12.0 mph 66 % 0.00 in
06:36 56.2 °F 45.4 °F 30.15 in North 6.0 mph 12.0 mph 67 % 0.00 in
06:41 56.1 °F 45.3 °F 30.16 in North 5.0 mph 14.0 mph 67 % 0.00 in
06:46 56.1 °F 45.3 °F 30.16 in NNE 7.0 mph 13.0 mph 67 % 0.00 in
06:51 56.1 °F 45.3 °F 30.16 in North 6.0 mph 12.0 mph 67 % 0.00 in
06:56 56.2 °F 45.8 °F 30.16 in North 7.0 mph 14.0 mph 68 % 0.00 in
07:01 56.2 °F 45.8 °F 30.16 in NNE 6.8 mph 11.5 mph 68 % 0.00 in
07:06 56.3 °F 45.9 °F 30.16 in NNE 8.0 mph 11.5 mph 68 % 0.00 in
07:11 56.3 °F 45.9 °F 30.17 in NNE 3.6 mph 10.4 mph 68 % 0.00 in
07:16 56.3 °F 45.9 °F 30.17 in NNW 6.9 mph 10.4 mph 68 % 0.00 in
07:21 56.3 °F 45.9 °F 30.16 in North 4.5 mph 8.1 mph 68 % 0.00 in
07:26 56.4 °F 46.4 °F 30.16 in North 7.6 mph 11.0 mph 69 % 0.00 in
07:31 56.5 °F 46.1 °F 30.17 in North 7.0 mph 10.0 mph 68 % 0.00 in
07:36 56.6 °F 45.4 °F 30.17 in North 7.9 mph 10.4 mph 66 % 0.00 in
07:41 56.6 °F 45.4 °F 30.17 in NNE 6.6 mph 11.5 mph 66 % 0.00 in
07:46 56.7 °F 46.3 °F 30.18 in North 4.8 mph 11.5 mph 68 % 0.00 in
07:52 56.8 °F 46.3 °F 30.18 in NNE 6.3 mph 10.4 mph 68 % 0.00 in
07:57 56.9 °F 45.7 °F 30.18 in NNE 6.5 mph 11.5 mph 66 % 0.00 in
08:02 56.9 °F 46.1 °F 30.17 in NNE 7.8 mph 11.5 mph 67 % 0.00 in
08:07 57.0 °F 46.1 °F 30.18 in North 5.0 mph 13.0 mph 67 % 0.00 in
08:12 57.0 °F 45.3 °F 30.18 in NNW 6.3 mph 11.5 mph 65 % 0.00 in
08:17 57.1 °F 45.4 °F 30.18 in North 4.5 mph 10.4 mph 65 % 0.00 in
08:22 57.2 °F 45.9 °F 30.18 in NNE 5.1 mph 8.1 mph 66 % 0.00 in
08:27 57.3 °F 46.0 °F 30.17 in NNE 4.5 mph 7.0 mph 66 % 0.00 in
08:32 57.4 °F 46.1 °F 30.17 in NNE 5.4 mph 11.0 mph 66 % 0.00 in
08:38 57.5 °F 45.4 °F 30.17 in NNW 6.9 mph 11.5 mph 64 % 0.00 in
08:43 57.5 °F 45.4 °F 30.17 in NNE 7.5 mph 10.4 mph 64 % 0.00 in
08:48 57.6 °F 45.1 °F 30.17 in NNE 4.0 mph 8.1 mph 63 % 0.00 in
08:53 57.7 °F 44.3 °F 30.17 in NW 5.3 mph 11.5 mph 61 % 0.00 in
08:58 57.8 °F 44.0 °F 30.17 in North 9.2 mph 15.0 mph 60 % 0.00 in
09:03 57.9 °F 43.7 °F 30.17 in North 8.1 mph 13.0 mph 59 % 0.00 in
09:08 58.0 °F 43.3 °F 30.17 in North 6.5 mph 10.4 mph 58 % 0.00 in
09:13 58.1 °F 43.4 °F 30.16 in NNE 6.4 mph 11.5 mph 58 % 0.00 in
09:18 58.2 °F 44.8 °F 30.16 in North 6.3 mph 10.4 mph 61 % 0.00 in
09:23 58.1 °F 42.9 °F 30.16 in NNE 6.1 mph 10.4 mph 57 % 0.00 in
09:29 58.1 °F 42.9 °F 30.16 in NNW 5.9 mph 10.4 mph 57 % 0.00 in
09:34 58.0 °F 43.3 °F 30.17 in NE 6.4 mph 10.0 mph 58 % 0.00 in
09:39 58.0 °F 43.3 °F 30.17 in NNW 4.2 mph 10.4 mph 58 % 0.00 in
09:44 58.0 °F 44.2 °F 30.17 in NNE 4.4 mph 9.2 mph 60 % 0.00 in
09:49 58.0 °F 43.3 °F 30.17 in NNE 4.7 mph 6.9 mph 58 % 0.00 in
09:54 58.0 °F 44.2 °F 30.17 in NNE 4.5 mph 5.8 mph 60 % 0.00 in
09:59 58.0 °F 43.7 °F 30.17 in NE 3.4 mph 6.9 mph 59 % 0.00 in
10:04 58.0 °F 42.8 °F 30.17 in NNE 5.1 mph 10.4 mph 57 % 0.00 in
10:09 58.1 °F 42.9 °F 30.17 in NNE 3.3 mph 7.0 mph 57 % 0.00 in
10:14 58.3 °F 43.1 °F 30.17 in WNW 2.9 mph 6.9 mph 57 % 0.00 in
10:19 58.7 °F 44.0 °F 30.17 in North 5.4 mph 8.1 mph 58 % 0.00 in
10:24 59.0 °F 42.8 °F 30.17 in North 5.4 mph 9.2 mph 55 % 0.00 in
10:30 59.2 °F 43.0 °F 30.17 in NNW 5.3 mph 9.0 mph 55 % 0.00 in
10:35 59.4 °F 43.2 °F 30.17 in North 4.1 mph 9.2 mph 55 % 0.00 in
10:40 59.6 °F 44.3 °F 30.17 in North 5.2 mph 6.9 mph 57 % 0.00 in
10:45 59.6 °F 43.4 °F 30.17 in North 5.2 mph 10.4 mph 55 % 0.00 in
10:55 59.7 °F 41.5 °F 30.18 in NNE 1.7 mph 3.5 mph 51 % 0.00 in
11:00 59.8 °F 42.6 °F 30.17 in NW 3.2 mph 8.0 mph 53 % 0.00 in
11:05 60.0 °F 42.3 °F 30.17 in NNE 3.9 mph 8.1 mph 52 % 0.00 in
11:10 60.5 °F 42.8 °F 30.17 in NE 4.2 mph 8.1 mph 52 % 0.00 in
11:15 61.5 °F 44.2 °F 30.17 in North 3.9 mph 7.0 mph 53 % 0.00 in
11:26 63.6 °F 44.6 °F 30.17 in North 5.0 mph 7.0 mph 50 % 0.00 in
11:31 64.6 °F 44.5 °F 30.17 in North 3.0 mph 10.0 mph 48 % 0.00 in
11:36 65.5 °F 44.1 °F 30.17 in North 5.0 mph 7.0 mph 46 % 0.00 in
11:41 66.3 °F 44.3 °F 30.17 in North 5.0 mph 9.0 mph 45 % 0.00 in
11:46 67.1 °F 43.9 °F 30.17 in North 2.0 mph 7.0 mph 43 % 0.00 in
11:56 68.4 °F 45.0 °F 30.16 in North 0.5 mph 5.8 mph 43 % 0.00 in
12:01 68.9 °F 42.9 °F 30.16 in NW 2.7 mph 5.8 mph 39 % 0.00 in
12:06 68.9 °F 42.9 °F 30.16 in WNW 1.2 mph 6.9 mph 39 % 0.00 in
12:11 69.2 °F 43.2 °F 30.16 in NNE 2.8 mph 8.1 mph 39 % 0.00 in
12:16 69.7 °F 46.8 °F 30.16 in North 2.2 mph 4.0 mph 44 % 0.00 in
12:21 70.1 °F 44.0 °F 30.16 in WNW 2.1 mph 3.5 mph 39 % 0.00 in
12:26 70.5 °F 45.0 °F 30.16 in North 3.1 mph 5.8 mph 40 % 0.00 in
12:31 70.7 °F 45.2 °F 30.16 in NNW 0.6 mph 1.2 mph 40 % 0.00 in
12:36 71.0 °F 44.8 °F 30.15 in NE 1.1 mph 4.6 mph 39 % 0.00 in
12:42 71.0 °F 43.4 °F 30.15 in NNE 0.4 mph 5.8 mph 37 % 0.00 in
12:47 70.8 °F 43.2 °F 30.15 in NNE 1.6 mph 5.8 mph 37 % 0.00 in
12:57 70.8 °F 41.0 °F 30.15 in North 4.4 mph 6.9 mph 34 % 0.00 in
13:02 70.8 °F 43.2 °F 30.14 in NNE 1.4 mph 5.0 mph 37 % 0.00 in
13:07 71.0 °F 42.0 °F 30.14 in NNE 5.8 mph 9.2 mph 35 % 0.00 in
13:12 71.0 °F 42.0 °F 30.14 in West 2.6 mph 6.9 mph 35 % 0.00 in
13:17 71.1 °F 41.3 °F 30.14 in North 4.2 mph 9.2 mph 34 % 0.00 in
13:22 71.3 °F 45.7 °F 30.14 in North 0.8 mph 6.9 mph 40 % 0.00 in
13:27 71.4 °F 45.8 °F 30.14 in NNE 3.1 mph 6.0 mph 40 % 0.00 in
13:33 71.6 °F 44.6 °F 30.14 in NNE 2.0 mph 4.6 mph 38 % 0.00 in
13:38 71.7 °F 42.6 °F 30.14 in NW 3.2 mph 6.0 mph 35 % 0.00 in
13:43 71.8 °F 44.8 °F 30.13 in NW 2.4 mph 5.8 mph 38 % 0.00 in
13:48 71.7 °F 44.0 °F 30.13 in NNE 1.4 mph 3.5 mph 37 % 0.00 in
13:53 71.7 °F 44.7 °F 30.13 in North 3.0 mph 5.0 mph 38 % 0.00 in
13:58 71.6 °F 43.9 °F 30.13 in NNE 1.0 mph 2.3 mph 37 % 0.00 in
14:03 71.5 °F 41.6 °F 30.13 in North 1.0 mph 3.5 mph 34 % 0.00 in
14:08 71.5 °F 43.1 °F 30.13 in North 0.8 mph 2.0 mph 36 % 0.00 in
14:13 71.6 °F 42.5 °F 30.13 in NW 1.1 mph 4.6 mph 35 % 0.00 in
14:18 71.6 °F 43.2 °F 30.12 in North 3.6 mph 5.8 mph 36 % 0.00 in
14:23 71.7 °F 45.4 °F 30.12 in West 0.7 mph 2.0 mph 39 % 0.00 in
14:28 71.7 °F 42.6 °F 30.12 in SSW 3.6 mph 4.6 mph 35 % 0.00 in
14:33 71.7 °F 42.6 °F 30.11 in SW 2.8 mph 5.8 mph 35 % 0.00 in
14:39 71.6 °F 44.6 °F 30.11 in WNW 3.4 mph 5.0 mph 38 % 0.00 in
14:44 71.6 °F 45.3 °F 30.12 in NE 3.8 mph 5.8 mph 39 % 0.00 in
14:49 71.6 °F 45.3 °F 30.11 in NW 2.5 mph 5.8 mph 39 % 0.00 in
14:54 71.7 °F 44.0 °F 30.11 in West 2.1 mph 3.5 mph 37 % 0.00 in
14:59 71.8 °F 46.8 °F 30.11 in West 1.2 mph 3.0 mph 41 % 0.00 in
15:04 71.7 °F 44.0 °F 30.11 in NW 1.4 mph 2.3 mph 37 % 0.00 in
15:09 71.4 °F 43.0 °F 30.11 in SW 3.4 mph 4.6 mph 36 % 0.00 in
15:14 71.4 °F 43.0 °F 30.10 in North 0.7 mph 3.5 mph 36 % 0.00 in
15:19 71.4 °F 44.5 °F 30.10 in NNE 2.0 mph 5.8 mph 38 % 0.00 in
15:25 71.3 °F 43.7 °F 30.10 in SSW 0.8 mph 2.3 mph 37 % 0.00 in
15:30 71.1 °F 44.2 °F 30.10 in NNE 0.7 mph 2.3 mph 38 % 0.00 in
15:35 70.9 °F 44.0 °F 30.10 in North 2.9 mph 4.6 mph 38 % 0.00 in
15:40 70.7 °F 42.4 °F 30.10 in NW 2.7 mph 3.5 mph 36 % 0.00 in
15:45 70.7 °F 43.1 °F 30.10 in WNW 1.6 mph 3.5 mph 37 % 0.00 in
15:50 70.6 °F 43.1 °F 30.09 in NW 0.6 mph 2.3 mph 37 % 0.00 in
15:55 70.5 °F 44.3 °F 30.09 in WNW 1.3 mph 3.5 mph 39 % 0.00 in
16:00 70.5 °F 42.2 °F 30.09 in NW 1.3 mph 3.5 mph 36 % 0.00 in
16:05 70.5 °F 41.5 °F 30.09 in NNE 0.7 mph 2.0 mph 35 % 0.00 in
16:10 70.1 °F 41.2 °F 30.09 in North 2.5 mph 4.6 mph 35 % 0.00 in
16:15 69.9 °F 41.7 °F 30.09 in NNW 1.0 mph 5.0 mph 36 % 0.00 in
16:20 69.6 °F 42.9 °F 30.08 in Calm   3.0 mph 38 % 0.00 in
16:25 69.4 °F 42.0 °F 30.08 in NNW 2.0 mph 6.0 mph 37 % 0.00 in
16:30 69.3 °F 41.9 °F 30.08 in NW 1.0 mph 7.0 mph 37 % 0.00 in
16:35 69.2 °F 41.1 °F 30.09 in NW 1.0 mph 6.0 mph 36 % 0.00 in
16:41 68.9 °F 41.5 °F 30.09 in NNW 3.0 mph 9.0 mph 37 % 0.00 in
16:45 68.6 °F 39.8 °F 30.09 in NNW 3.0 mph 8.0 mph 35 % 0.00 in
16:50 68.4 °F 40.4 °F 30.08 in NW 3.0 mph 7.0 mph 36 % 0.00 in
17:01 68.1 °F 40.8 °F 30.08 in North 5.1 mph 6.9 mph 37 % 0.00 in
17:06 67.7 °F 39.8 °F 30.09 in North 5.1 mph 8.1 mph 36 % 0.00 in
17:11 67.6 °F 39.7 °F 30.08 in NNE 3.4 mph 9.2 mph 36 % 0.00 in
17:16 67.4 °F 39.5 °F 30.09 in North 5.6 mph 8.1 mph 36 % 0.00 in
17:21 67.3 °F 40.8 °F 30.09 in North 3.0 mph 5.8 mph 38 % 0.00 in
17:26 67.2 °F 40.0 °F 30.09 in North 3.0 mph 6.9 mph 37 % 0.00 in
17:31 67.0 °F 39.9 °F 30.09 in NNE 3.8 mph 6.9 mph 37 % 0.00 in
17:36 66.9 °F 39.8 °F 30.09 in NNW 3.0 mph 5.8 mph 37 % 0.00 in
17:41 66.8 °F 40.4 °F 30.09 in NNE 2.2 mph 5.0 mph 38 % 0.00 in
17:46 66.7 °F 38.9 °F 30.09 in North 3.2 mph 5.8 mph 36 % 0.00 in
17:52 66.6 °F 39.5 °F 30.09 in WNW 1.1 mph 3.5 mph 37 % 0.00 in
17:57 66.5 °F 40.1 °F 30.09 in North 4.1 mph 6.9 mph 38 % 0.00 in
18:02 66.3 °F 40.6 °F 30.09 in NNE 1.7 mph 3.5 mph 39 % 0.00 in
18:07 66.2 °F 39.8 °F 30.09 in North 2.3 mph 3.5 mph 38 % 0.00 in
18:12 66.0 °F 39.7 °F 30.09 in North 4.7 mph 8.1 mph 38 % 0.00 in
18:17 65.8 °F 39.5 °F 30.09 in NNW 2.2 mph 4.6 mph 38 % 0.00 in
18:22 65.7 °F 40.1 °F 30.10 in NW 4.2 mph 6.9 mph 39 % 0.00 in
18:32 65.4 °F 39.8 °F 30.10 in North 3.6 mph 5.0 mph 39 % 0.00 in
18:37 65.3 °F 40.3 °F 30.10 in NNE 1.2 mph 3.5 mph 40 % 0.00 in
18:43 65.1 °F 40.2 °F 30.10 in North 4.1 mph 6.0 mph 40 % 0.00 in
18:48 64.9 °F 40.0 °F 30.10 in North 3.6 mph 6.0 mph 40 % 0.00 in
18:53 64.7 °F 40.4 °F 30.11 in NNE 3.7 mph 8.1 mph 41 % 0.00 in
18:58 64.6 °F 40.4 °F 30.11 in North 3.2 mph 5.8 mph 41 % 0.00 in
19:03 64.5 °F 40.9 °F 30.11 in NNE 3.5 mph 5.8 mph 42 % 0.00 in
19:08 64.4 °F 40.8 °F 30.12 in NNE 5.9 mph 11.5 mph 42 % 0.00 in
19:13 64.3 °F 41.3 °F 30.11 in North 4.7 mph 6.9 mph 43 % 0.00 in
19:18 64.2 °F 41.2 °F 30.11 in NNE 4.9 mph 8.1 mph 43 % 0.00 in
19:28 64.2 °F 42.4 °F 30.11 in North 4.9 mph 7.0 mph 45 % 0.00 in
19:34 64.1 °F 41.1 °F 30.12 in NNE 3.7 mph 7.0 mph 43 % 0.00 in
19:44 64.0 °F 41.6 °F 30.12 in NNE 1.7 mph 5.8 mph 44 % 0.00 in
19:49 63.9 °F 42.1 °F 30.12 in North 1.5 mph 4.6 mph 45 % 0.00 in
19:54 63.8 °F 42.0 °F 30.12 in NE 3.9 mph 9.2 mph 45 % 0.00 in
19:59 63.7 °F 41.4 °F 30.12 in NNE 2.5 mph 5.8 mph 44 % 0.00 in
20:04 63.6 °F 41.3 °F 30.13 in North 3.1 mph 6.0 mph 44 % 0.00 in
20:09 63.5 °F 41.8 °F 30.13 in NNE 4.5 mph 6.9 mph 45 % 0.00 in
20:14 63.4 °F 41.7 °F 30.13 in NNE 5.2 mph 9.2 mph 45 % 0.00 in
20:19 63.4 °F 41.7 °F 30.14 in NNE 3.8 mph 8.1 mph 45 % 0.00 in
20:25 63.2 °F 41.5 °F 30.14 in NNE 1.8 mph 3.5 mph 45 % 0.00 in
20:30 63.2 °F 42.1 °F 30.14 in NNE 5.0 mph 9.2 mph 46 % 0.00 in
20:35 63.1 °F 42.5 °F 30.14 in NE 4.2 mph 8.1 mph 47 % 0.00 in
20:40 63.0 °F 42.4 °F 30.14 in NNW 3.3 mph 9.2 mph 47 % 0.00 in
20:45 62.9 °F 42.4 °F 30.14 in North 2.5 mph 8.1 mph 47 % 0.00 in
20:50 62.9 °F 42.4 °F 30.14 in NNE 2.2 mph 4.0 mph 47 % 0.00 in
20:55 62.9 °F 42.4 °F 30.14 in NNE 2.1 mph 5.0 mph 47 % 0.00 in
21:00 62.8 °F 42.3 °F 30.14 in North 3.0 mph 6.0 mph 47 % 0.00 in
21:05 62.8 °F 42.8 °F 30.15 in NNE 4.7 mph 4.7 mph 48 % 0.00 in
21:10 62.7 °F 42.2 °F 30.15 in NE 1.9 mph 4.6 mph 47 % 0.00 in
21:16 62.7 °F 42.7 °F 30.15 in NE 2.0 mph 9.0 mph 48 % 0.00 in
21:21 62.6 °F 42.6 °F 30.15 in NNE 3.0 mph 12.0 mph 48 % 0.00 in
21:31 62.5 °F 42.5 °F 30.15 in NE 3.0 mph 8.0 mph 48 % 0.00 in
21:36 62.5 °F 42.5 °F 30.15 in NE 3.0 mph 7.0 mph 48 % 0.00 in
21:41 62.5 °F 43.6 °F 30.15 in NNE 2.0 mph 7.0 mph 50 % 0.00 in
21:46 62.5 °F 43.6 °F 30.15 in NNE 2.9 mph 5.0 mph 50 % 0.00 in
21:51 62.4 °F 43.0 °F 30.15 in NE 3.0 mph 7.0 mph 49 % 0.00 in
21:56 62.4 °F 43.5 °F 30.16 in ENE 2.0 mph 6.0 mph 50 % 0.00 in
22:01 62.3 °F 43.4 °F 30.16 in NE 1.9 mph 5.0 mph 50 % 0.00 in
22:06 62.3 °F 43.4 °F 30.16 in ENE 1.7 mph 3.5 mph 50 % 0.00 in
22:11 62.2 °F 43.3 °F 30.16 in NE 1.7 mph 3.5 mph 50 % 0.00 in
22:16 62.1 °F 43.7 °F 30.16 in East 2.3 mph 8.0 mph 51 % 0.00 in
22:21 62.0 °F 43.1 °F 30.16 in ENE 2.4 mph 4.6 mph 50 % 0.00 in
22:26 61.9 °F 42.5 °F 30.16 in ENE 2.8 mph 4.6 mph 49 % 0.00 in
22:31 61.8 °F 42.4 °F 30.16 in NNE 2.6 mph 3.5 mph 49 % 0.00 in
22:36 61.8 °F 42.4 °F 30.16 in NNE 3.3 mph 5.8 mph 49 % 0.00 in
22:46 61.7 °F 42.3 °F 30.16 in North 1.9 mph 6.9 mph 49 % 0.00 in
22:52 61.6 °F 42.8 °F 30.17 in NNE 0.1 mph 3.5 mph 50 % 0.00 in
22:57 61.6 °F 43.3 °F 30.16 in NE 1.6 mph 3.5 mph 51 % 0.00 in
23:07 61.5 °F 42.7 °F 30.17 in NE 1.3 mph 2.3 mph 50 % 0.00 in
23:12 61.5 °F 43.2 °F 30.16 in ENE 0.6 mph 1.2 mph 51 % 0.00 in
23:17 61.4 °F 44.1 °F 30.16 in ENE 0.1 mph 1.2 mph 53 % 0.00 in
23:22 61.3 °F 44.5 °F 30.16 in ENE 0.3 mph 1.2 mph 54 % 0.00 in
23:27 61.3 °F 45.5 °F 30.16 in Calm     56 % 0.00 in
23:32 61.1 °F 44.8 °F 30.16 in ENE 0.2 mph 1.2 mph 55 % 0.00 in
23:37 60.7 °F 44.9 °F 30.16 in ENE 0.3 mph 1.2 mph 56 % 0.00 in
23:43 60.3 °F 45.0 °F 30.16 in Calm   1.2 mph 57 % 0.00 in
23:48 60.0 °F 44.7 °F 30.16 in Calm     57 % 0.00 in
23:58 59.3 °F 45.0 °F 30.16 in Calm   1.2 mph 59 % 0.00 in
Crab Meadow Weather
Compliments of Weather Underground - 2.75 mb

Script developed by  Jim McMurry - jmcmurry@mwt.net Adapted for the template by  Wim van der Kuil - Leuven-Template.eu

Weather Terms: Tornado - A violently rotating column of air, from a thunderstorm, in contact with the ground.